sensor_id;sensor_type;location;lat;lon;timestamp;P1;durP1;ratioP1;P2;durP2;ratioP2
46457;SDS011;32155;54.076;12.092;2023-03-01T02:17:21;11.55;;;5.93;;
46457;SDS011;32155;54.076;12.092;2023-03-01T02:22:35;12.45;;;6.25;;
46457;SDS011;32155;54.076;12.092;2023-03-01T02:30:43;9.77;;;5.55;;
46457;SDS011;32155;54.076;12.092;2023-03-01T02:33:31;13.15;;;5.93;;
46457;SDS011;32155;54.076;12.092;2023-03-01T02:36:02;10.75;;;6.65;;
46457;SDS011;32155;54.076;12.092;2023-03-01T02:41:00;11.70;;;6.85;;
46457;SDS011;32155;54.076;12.092;2023-03-01T02:43:30;11.43;;;6.70;;
46457;SDS011;32155;54.076;12.092;2023-03-01T02:45:58;14.52;;;7.53;;
46457;SDS011;32155;54.076;12.092;2023-03-01T02:48:38;13.35;;;7.53;;
46457;SDS011;32155;54.076;12.092;2023-03-01T02:56:26;13.15;;;6.72;;
46457;SDS011;32155;54.076;12.092;2023-03-01T02:58:53;10.85;;;6.95;;
46457;SDS011;32155;54.076;12.092;2023-03-01T03:01:19;12.13;;;6.57;;
46457;SDS011;32155;54.076;12.092;2023-03-01T03:03:48;12.65;;;6.82;;
46457;SDS011;32155;54.076;12.092;2023-03-01T03:06:13;12.52;;;6.70;;
46457;SDS011;32155;54.076;12.092;2023-03-01T03:08:39;12.15;;;7.05;;
46457;SDS011;32155;54.076;12.092;2023-03-01T03:11:04;11.82;;;6.75;;
46457;SDS011;32155;54.076;12.092;2023-03-01T03:13:30;12.70;;;6.85;;
46457;SDS011;32155;54.076;12.092;2023-03-01T03:15:57;11.82;;;7.10;;
46457;SDS011;32155;54.076;12.092;2023-03-01T03:18:23;13.55;;;7.50;;
46457;SDS011;32155;54.076;12.092;2023-03-01T03:20:52;10.45;;;7.13;;
46457;SDS011;32155;54.076;12.092;2023-03-01T03:23:19;12.90;;;7.03;;
46457;SDS011;32155;54.076;12.092;2023-03-01T03:25:47;13.10;;;7.65;;
46457;SDS011;32155;54.076;12.092;2023-03-01T03:28:17;14.38;;;7.00;;
46457;SDS011;32155;54.076;12.092;2023-03-01T03:30:44;13.00;;;7.10;;
46457;SDS011;32155;54.076;12.092;2023-03-01T03:33:10;11.55;;;7.05;;
46457;SDS011;32155;54.076;12.092;2023-03-01T03:35:44;12.57;;;6.90;;
46457;SDS011;32155;54.076;12.092;2023-03-01T03:38:12;12.60;;;7.53;;
46457;SDS011;32155;54.076;12.092;2023-03-01T03:43:13;13.73;;;7.88;;
46457;SDS011;32155;54.076;12.092;2023-03-01T03:45:46;12.23;;;6.93;;
46457;SDS011;32155;54.076;12.092;2023-03-01T03:48:13;13.60;;;6.80;;
46457;SDS011;32155;54.076;12.092;2023-03-01T03:50:39;14.52;;;7.63;;
46457;SDS011;32155;54.076;12.092;2023-03-01T03:53:07;10.27;;;6.45;;
46457;SDS011;32155;54.076;12.092;2023-03-01T03:55:36;12.48;;;7.05;;
46457;SDS011;32155;54.076;12.092;2023-03-01T03:58:04;12.82;;;7.82;;
46457;SDS011;32155;54.076;12.092;2023-03-01T04:00:32;12.95;;;7.53;;
46457;SDS011;32155;54.076;12.092;2023-03-01T04:03:02;11.05;;;7.40;;
46457;SDS011;32155;54.076;12.092;2023-03-01T04:05:30;11.63;;;7.22;;
46457;SDS011;32155;54.076;12.092;2023-03-01T04:07:59;14.35;;;7.53;;
46457;SDS011;32155;54.076;12.092;2023-03-01T04:10:28;14.80;;;7.95;;
46457;SDS011;32155;54.076;12.092;2023-03-01T04:12:55;14.02;;;7.75;;
46457;SDS011;32155;54.076;12.092;2023-03-01T04:15:24;13.57;;;7.50;;
46457;SDS011;32155;54.076;12.092;2023-03-01T04:17:53;17.00;;;8.57;;
46457;SDS011;32155;54.076;12.092;2023-03-01T04:20:20;13.95;;;7.80;;
46457;SDS011;32155;54.076;12.092;2023-03-01T04:23:04;12.15;;;7.63;;
46457;SDS011;32155;54.076;12.092;2023-03-01T04:25:50;17.48;;;8.80;;
46457;SDS011;32155;54.076;12.092;2023-03-01T04:28:24;14.55;;;8.48;;
46457;SDS011;32155;54.076;12.092;2023-03-01T04:31:08;14.00;;;9.07;;
46457;SDS011;32155;54.076;12.092;2023-03-01T04:36:08;16.67;;;8.75;;
46457;SDS011;32155;54.076;12.092;2023-03-01T04:38:35;18.38;;;8.50;;
46457;SDS011;32155;54.076;12.092;2023-03-01T04:41:05;17.00;;;8.57;;
46457;SDS011;32155;54.076;12.092;2023-03-01T04:43:32;17.92;;;8.48;;
46457;SDS011;32155;54.076;12.092;2023-03-01T04:46:05;19.02;;;8.70;;
46457;SDS011;32155;54.076;12.092;2023-03-01T04:48:36;17.42;;;8.32;;
46457;SDS011;32155;54.076;12.092;2023-03-01T04:51:03;15.90;;;9.32;;
46457;SDS011;32155;54.076;12.092;2023-03-01T04:53:30;18.80;;;9.98;;
46457;SDS011;32155;54.076;12.092;2023-03-01T04:55:57;16.88;;;9.10;;
46457;SDS011;32155;54.076;12.092;2023-03-01T04:58:24;18.60;;;9.63;;
46457;SDS011;32155;54.076;12.092;2023-03-01T05:00:51;18.67;;;10.15;;
46457;SDS011;32155;54.076;12.092;2023-03-01T05:03:17;14.25;;;9.13;;
46457;SDS011;32155;54.076;12.092;2023-03-01T05:05:43;23.10;;;10.32;;
46457;SDS011;32155;54.076;12.092;2023-03-01T05:08:11;19.75;;;10.50;;
46457;SDS011;32155;54.076;12.092;2023-03-01T05:10:46;20.20;;;10.60;;
46457;SDS011;32155;54.076;12.092;2023-03-01T05:13:20;18.48;;;10.18;;
46457;SDS011;32155;54.076;12.092;2023-03-01T05:15:47;19.77;;;10.32;;
46457;SDS011;32155;54.076;12.092;2023-03-01T05:18:18;18.95;;;10.20;;
46457;SDS011;32155;54.076;12.092;2023-03-01T05:20:46;18.55;;;9.85;;
46457;SDS011;32155;54.076;12.092;2023-03-01T05:23:12;19.08;;;10.23;;
46457;SDS011;32155;54.076;12.092;2023-03-01T05:25:38;23.45;;;11.07;;
46457;SDS011;32155;54.076;12.092;2023-03-01T05:28:05;15.40;;;10.15;;
46457;SDS011;32155;54.076;12.092;2023-03-01T05:30:35;18.80;;;10.43;;
46457;SDS011;32155;54.076;12.092;2023-03-01T05:33:03;18.02;;;9.68;;
46457;SDS011;32155;54.076;12.092;2023-03-01T05:35:29;18.35;;;10.20;;
46457;SDS011;32155;54.076;12.092;2023-03-01T05:37:57;21.65;;;10.18;;
46457;SDS011;32155;54.076;12.092;2023-03-01T05:40:25;17.35;;;10.05;;
46457;SDS011;32155;54.076;12.092;2023-03-01T05:42:55;21.27;;;10.52;;
46457;SDS011;32155;54.076;12.092;2023-03-01T05:45:22;19.80;;;10.80;;
46457;SDS011;32155;54.076;12.092;2023-03-01T05:47:49;20.60;;;10.75;;
46457;SDS011;32155;54.076;12.092;2023-03-01T05:50:19;17.88;;;11.13;;
46457;SDS011;32155;54.076;12.092;2023-03-01T05:52:52;21.42;;;11.77;;
46457;SDS011;32155;54.076;12.092;2023-03-01T05:55:25;22.40;;;12.55;;
46457;SDS011;32155;54.076;12.092;2023-03-01T05:57:52;23.77;;;12.77;;
46457;SDS011;32155;54.076;12.092;2023-03-01T06:00:18;20.60;;;12.18;;
46457;SDS011;32155;54.076;12.092;2023-03-01T06:02:47;24.95;;;12.82;;
46457;SDS011;32155;54.076;12.092;2023-03-01T06:05:13;22.42;;;13.18;;
46457;SDS011;32155;54.076;12.092;2023-03-01T06:07:39;27.25;;;14.38;;
46457;SDS011;32155;54.076;12.092;2023-03-01T06:10:08;21.33;;;13.30;;
46457;SDS011;32155;54.076;12.092;2023-03-01T06:12:35;21.85;;;12.63;;
46457;SDS011;32155;54.076;12.092;2023-03-01T06:15:05;24.58;;;12.82;;
46457;SDS011;32155;54.076;12.092;2023-03-01T06:17:34;19.88;;;12.13;;
46457;SDS011;32155;54.076;12.092;2023-03-01T06:20:03;25.70;;;13.18;;
46457;SDS011;32155;54.076;12.092;2023-03-01T06:22:33;22.48;;;12.60;;
46457;SDS011;32155;54.076;12.092;2023-03-01T06:24:59;20.75;;;12.43;;
46457;SDS011;32155;54.076;12.092;2023-03-01T06:27:25;20.45;;;12.07;;
46457;SDS011;32155;54.076;12.092;2023-03-01T06:29:50;23.63;;;12.18;;
46457;SDS011;32155;54.076;12.092;2023-03-01T06:32:16;25.70;;;13.23;;
46457;SDS011;32155;54.076;12.092;2023-03-01T06:34:44;23.95;;;13.27;;
46457;SDS011;32155;54.076;12.092;2023-03-01T06:37:10;19.45;;;11.88;;
46457;SDS011;32155;54.076;12.092;2023-03-01T06:39:38;24.00;;;12.57;;
46457;SDS011;32155;54.076;12.092;2023-03-01T06:42:04;24.38;;;12.50;;
46457;SDS011;32155;54.076;12.092;2023-03-01T06:44:30;26.85;;;14.05;;
46457;SDS011;32155;54.076;12.092;2023-03-01T06:46:56;32.10;;;15.05;;
46457;SDS011;32155;54.076;12.092;2023-03-01T06:49:22;24.75;;;13.63;;
46457;SDS011;32155;54.076;12.092;2023-03-01T06:51:47;21.90;;;13.18;;
46457;SDS011;32155;54.076;12.092;2023-03-01T06:54:13;21.75;;;12.75;;
46457;SDS011;32155;54.076;12.092;2023-03-01T06:56:42;22.40;;;12.75;;
46457;SDS011;32155;54.076;12.092;2023-03-01T06:59:11;21.90;;;13.70;;
46457;SDS011;32155;54.076;12.092;2023-03-01T07:01:37;22.33;;;13.40;;
46457;SDS011;32155;54.076;12.092;2023-03-01T07:04:05;22.55;;;13.60;;
46457;SDS011;32155;54.076;12.092;2023-03-01T07:06:33;29.85;;;15.10;;
46457;SDS011;32155;54.076;12.092;2023-03-01T07:08:59;34.00;;;18.85;;
46457;SDS011;32155;54.076;12.092;2023-03-01T07:11:25;33.53;;;18.08;;
46457;SDS011;32155;54.076;12.092;2023-03-01T07:13:53;31.35;;;16.48;;
46457;SDS011;32155;54.076;12.092;2023-03-01T07:16:20;28.75;;;16.08;;
46457;SDS011;32155;54.076;12.092;2023-03-01T07:18:48;35.97;;;17.20;;
46457;SDS011;32155;54.076;12.092;2023-03-01T07:21:14;41.85;;;21.08;;
46457;SDS011;32155;54.076;12.092;2023-03-01T07:23:41;45.70;;;22.63;;
46457;SDS011;32155;54.076;12.092;2023-03-01T07:26:07;45.83;;;24.20;;
46457;SDS011;32155;54.076;12.092;2023-03-01T07:28:33;49.03;;;25.55;;
46457;SDS011;32155;54.076;12.092;2023-03-01T07:31:03;51.28;;;25.13;;
46457;SDS011;32155;54.076;12.092;2023-03-01T07:33:32;61.63;;;27.20;;
46457;SDS011;32155;54.076;12.092;2023-03-01T07:35:58;56.53;;;26.85;;
46457;SDS011;32155;54.076;12.092;2023-03-01T07:38:26;60.67;;;26.50;;
46457;SDS011;32155;54.076;12.092;2023-03-01T07:40:57;57.30;;;26.20;;
46457;SDS011;32155;54.076;12.092;2023-03-01T07:43:37;65.45;;;27.40;;
46457;SDS011;32155;54.076;12.092;2023-03-01T07:46:03;71.60;;;30.85;;
46457;SDS011;32155;54.076;12.092;2023-03-01T07:48:30;67.18;;;27.70;;
46457;SDS011;32155;54.076;12.092;2023-03-01T07:51:00;59.25;;;28.08;;
46457;SDS011;32155;54.076;12.092;2023-03-01T07:53:26;64.35;;;29.23;;
46457;SDS011;32155;54.076;12.092;2023-03-01T07:56:02;68.95;;;29.45;;
46457;SDS011;32155;54.076;12.092;2023-03-01T07:58:40;68.78;;;27.80;;
46457;SDS011;32155;54.076;12.092;2023-03-01T08:01:08;91.70;;;28.42;;
46457;SDS011;32155;54.076;12.092;2023-03-01T08:03:35;93.25;;;29.63;;
46457;SDS011;32155;54.076;12.092;2023-03-01T08:06:05;65.80;;;28.40;;
46457;SDS011;32155;54.076;12.092;2023-03-01T08:08:32;88.25;;;29.80;;
46457;SDS011;32155;54.076;12.092;2023-03-01T08:10:58;73.25;;;30.17;;
46457;SDS011;32155;54.076;12.092;2023-03-01T08:13:28;106.32;;;30.38;;
46457;SDS011;32155;54.076;12.092;2023-03-01T08:16:03;121.20;;;29.95;;
46457;SDS011;32155;54.076;12.092;2023-03-01T08:18:34;71.95;;;28.60;;
46457;SDS011;32155;54.076;12.092;2023-03-01T08:21:04;83.70;;;27.67;;
46457;SDS011;32155;54.076;12.092;2023-03-01T08:23:33;75.43;;;26.27;;
46457;SDS011;32155;54.076;12.092;2023-03-01T08:28:34;75.20;;;27.60;;
46457;SDS011;32155;54.076;12.092;2023-03-01T08:31:00;62.90;;;25.52;;
46457;SDS011;32155;54.076;12.092;2023-03-01T08:33:37;60.97;;;24.48;;
46457;SDS011;32155;54.076;12.092;2023-03-01T08:36:05;51.30;;;24.92;;
46457;SDS011;32155;54.076;12.092;2023-03-01T08:38:31;58.15;;;25.00;;
46457;SDS011;32155;54.076;12.092;2023-03-01T08:41:02;52.38;;;24.15;;
46457;SDS011;32155;54.076;12.092;2023-03-01T08:43:28;59.78;;;24.02;;
46457;SDS011;32155;54.076;12.092;2023-03-01T08:45:54;46.90;;;23.23;;
46457;SDS011;32155;54.076;12.092;2023-03-01T08:48:20;55.45;;;23.88;;
46457;SDS011;32155;54.076;12.092;2023-03-01T08:50:48;63.78;;;23.33;;
46457;SDS011;32155;54.076;12.092;2023-03-01T08:53:28;53.92;;;21.92;;
46457;SDS011;32155;54.076;12.092;2023-03-01T08:58:27;38.63;;;22.52;;
46457;SDS011;32155;54.076;12.092;2023-03-01T09:00:53;44.17;;;19.98;;
46457;SDS011;32155;54.076;12.092;2023-03-01T09:03:21;36.30;;;21.15;;
46457;SDS011;32155;54.076;12.092;2023-03-01T09:05:50;37.72;;;21.20;;
46457;SDS011;32155;54.076;12.092;2023-03-01T09:08:17;34.08;;;20.70;;
46457;SDS011;32155;54.076;12.092;2023-03-01T09:10:43;40.05;;;22.73;;
46457;SDS011;32155;54.076;12.092;2023-03-01T09:13:09;42.47;;;20.67;;
46457;SDS011;32155;54.076;12.092;2023-03-01T09:15:38;37.67;;;21.02;;
46457;SDS011;32155;54.076;12.092;2023-03-01T09:18:07;43.95;;;22.40;;
46457;SDS011;32155;54.076;12.092;2023-03-01T09:20:32;41.65;;;22.08;;
46457;SDS011;32155;54.076;12.092;2023-03-01T09:22:58;47.35;;;23.73;;
46457;SDS011;32155;54.076;12.092;2023-03-01T09:25:24;54.00;;;23.88;;
46457;SDS011;32155;54.076;12.092;2023-03-01T09:27:53;47.00;;;23.73;;
46457;SDS011;32155;54.076;12.092;2023-03-01T09:30:20;48.63;;;24.60;;
46457;SDS011;32155;54.076;12.092;2023-03-01T09:32:46;53.78;;;23.73;;
46457;SDS011;32155;54.076;12.092;2023-03-01T09:35:12;52.10;;;25.02;;
46457;SDS011;32155;54.076;12.092;2023-03-01T09:37:40;44.95;;;24.67;;
46457;SDS011;32155;54.076;12.092;2023-03-01T09:40:14;50.35;;;24.35;;
46457;SDS011;32155;54.076;12.092;2023-03-01T09:43:25;43.85;;;23.00;;
46457;SDS011;32155;54.076;12.092;2023-03-01T09:45:38;40.83;;;23.92;;
46457;SDS011;32155;54.076;12.092;2023-03-01T09:48:10;45.72;;;23.63;;
46457;SDS011;32155;54.076;12.092;2023-03-01T09:50:41;43.75;;;25.13;;
46457;SDS011;32155;54.076;12.092;2023-03-01T09:53:15;46.78;;;24.20;;
46457;SDS011;32155;54.076;12.092;2023-03-01T10:01:19;56.30;;;26.15;;
46457;SDS011;32155;54.076;12.092;2023-03-01T10:13:14;43.53;;;25.27;;
46457;SDS011;32155;54.076;12.092;2023-03-01T10:15:53;45.13;;;25.70;;
46457;SDS011;32155;54.076;12.092;2023-03-01T10:18:27;47.00;;;27.80;;
46457;SDS011;32155;54.076;12.092;2023-03-01T10:21:01;50.65;;;26.70;;
46457;SDS011;32155;54.076;12.092;2023-03-01T10:23:49;52.22;;;27.73;;
46457;SDS011;32155;54.076;12.092;2023-03-01T10:29:03;51.17;;;26.67;;
46457;SDS011;32155;54.076;12.092;2023-03-01T10:31:37;46.17;;;26.40;;
46457;SDS011;32155;54.076;12.092;2023-03-01T10:34:13;48.42;;;26.83;;
46457;SDS011;32155;54.076;12.092;2023-03-01T10:37:10;48.67;;;27.90;;
46457;SDS011;32155;54.076;12.092;2023-03-01T10:39:36;50.97;;;26.90;;
46457;SDS011;32155;54.076;12.092;2023-03-01T10:42:03;51.85;;;28.92;;
46457;SDS011;32155;54.076;12.092;2023-03-01T10:47:23;50.65;;;27.95;;
46457;SDS011;32155;54.076;12.092;2023-03-01T10:49:54;48.10;;;27.15;;
46457;SDS011;32155;54.076;12.092;2023-03-01T10:55:43;52.97;;;28.48;;
46457;SDS011;32155;54.076;12.092;2023-03-01T11:00:53;49.97;;;27.25;;
46457;SDS011;32155;54.076;12.092;2023-03-01T11:03:21;46.00;;;26.48;;
46457;SDS011;32155;54.076;12.092;2023-03-01T11:05:57;49.17;;;28.23;;
46457;SDS011;32155;54.076;12.092;2023-03-01T11:08:30;51.92;;;27.05;;
46457;SDS011;32155;54.076;12.092;2023-03-01T11:17:46;44.90;;;24.85;;
46457;SDS011;32155;54.076;12.092;2023-03-01T11:22:52;52.53;;;26.40;;
46457;SDS011;32155;54.076;12.092;2023-03-01T11:25:21;46.70;;;25.88;;
46457;SDS011;32155;54.076;12.092;2023-03-01T11:27:51;50.38;;;28.08;;
46457;SDS011;32155;54.076;12.092;2023-03-01T11:30:36;57.45;;;27.40;;
46457;SDS011;32155;54.076;12.092;2023-03-01T11:33:13;52.78;;;27.10;;
46457;SDS011;32155;54.076;12.092;2023-03-01T11:55:08;59.78;;;30.30;;
46457;SDS011;32155;54.076;12.092;2023-03-01T12:17:21;56.42;;;29.10;;
46457;SDS011;32155;54.076;12.092;2023-03-01T12:20:03;68.60;;;30.33;;
46457;SDS011;32155;54.076;12.092;2023-03-01T13:15:29;60.30;;;27.73;;
46457;SDS011;32155;54.076;12.092;2023-03-01T13:18:51;51.10;;;26.63;;
46457;SDS011;32155;54.076;12.092;2023-03-01T13:25:10;50.20;;;27.63;;
46457;SDS011;32155;54.076;12.092;2023-03-01T13:27:43;51.70;;;27.00;;
46457;SDS011;32155;54.076;12.092;2023-03-01T13:39:01;49.22;;;28.27;;
46457;SDS011;32155;54.076;12.092;2023-03-01T13:42:03;51.17;;;28.95;;
46457;SDS011;32155;54.076;12.092;2023-03-01T13:44:35;49.85;;;27.15;;
46457;SDS011;32155;54.076;12.092;2023-03-01T13:55:23;58.53;;;29.10;;
46457;SDS011;32155;54.076;12.092;2023-03-01T13:58:22;53.75;;;27.83;;
46457;SDS011;32155;54.076;12.092;2023-03-01T14:00:58;59.17;;;30.13;;
46457;SDS011;32155;54.076;12.092;2023-03-01T14:03:40;65.57;;;32.88;;
46457;SDS011;32155;54.076;12.092;2023-03-01T14:06:14;56.03;;;29.02;;
46457;SDS011;32155;54.076;12.092;2023-03-01T14:08:45;57.50;;;29.90;;
